sensor_id;sensor_type;location;lat;lon;timestamp;P1;durP1;ratioP1;P2;durP2;ratioP2
5363;SDS011;2705;41.410;2.160;2023-06-01T00:01:37;15.33;;;7.17;;
5363;SDS011;2705;41.410;2.160;2023-06-01T00:04:10;11.10;;;6.27;;
5363;SDS011;2705;41.410;2.160;2023-06-01T00:06:40;9.67;;;7.17;;
5363;SDS011;2705;41.410;2.160;2023-06-01T00:09:09;8.43;;;6.07;;
5363;SDS011;2705;41.410;2.160;2023-06-01T00:11:38;10.43;;;6.70;;
5363;SDS011;2705;41.410;2.160;2023-06-01T00:14:07;6.83;;;4.97;;
5363;SDS011;2705;41.410;2.160;2023-06-01T00:16:37;6.37;;;4.90;;
5363;SDS011;2705;41.410;2.160;2023-06-01T00:19:07;8.97;;;4.63;;
5363;SDS011;2705;41.410;2.160;2023-06-01T00:21:40;6.10;;;4.40;;
5363;SDS011;2705;41.410;2.160;2023-06-01T00:24:10;4.83;;;4.10;;
5363;SDS011;2705;41.410;2.160;2023-06-01T00:26:40;4.33;;;3.60;;
5363;SDS011;2705;41.410;2.160;2023-06-01T00:29:09;7.10;;;4.80;;
5363;SDS011;2705;41.410;2.160;2023-06-01T00:31:39;6.87;;;5.00;;
5363;SDS011;2705;41.410;2.160;2023-06-01T00:34:10;7.77;;;4.73;;
5363;SDS011;2705;41.410;2.160;2023-06-01T00:36:41;7.83;;;5.13;;
5363;SDS011;2705;41.410;2.160;2023-06-01T00:39:11;8.00;;;5.50;;
5363;SDS011;2705;41.410;2.160;2023-06-01T00:41:41;7.90;;;5.40;;
5363;SDS011;2705;41.410;2.160;2023-06-01T00:44:10;7.97;;;5.67;;
5363;SDS011;2705;41.410;2.160;2023-06-01T00:46:40;8.90;;;5.80;;
5363;SDS011;2705;41.410;2.160;2023-06-01T00:49:10;9.80;;;6.43;;
5363;SDS011;2705;41.410;2.160;2023-06-01T00:51:41;9.47;;;5.90;;
5363;SDS011;2705;41.410;2.160;2023-06-01T00:54:11;8.93;;;6.10;;
5363;SDS011;2705;41.410;2.160;2023-06-01T00:56:41;8.83;;;6.27;;
5363;SDS011;2705;41.410;2.160;2023-06-01T00:59:11;8.60;;;5.57;;
5363;SDS011;2705;41.410;2.160;2023-06-01T01:01:41;8.30;;;5.73;;
5363;SDS011;2705;41.410;2.160;2023-06-01T01:04:10;9.77;;;4.83;;
5363;SDS011;2705;41.410;2.160;2023-06-01T01:06:45;5.87;;;4.90;;
5363;SDS011;2705;41.410;2.160;2023-06-01T01:09:22;6.10;;;4.97;;
5363;SDS011;2705;41.410;2.160;2023-06-01T01:11:55;7.60;;;4.77;;
5363;SDS011;2705;41.410;2.160;2023-06-01T01:14:28;6.87;;;4.90;;
5363;SDS011;2705;41.410;2.160;2023-06-01T01:17:01;6.87;;;4.93;;
5363;SDS011;2705;41.410;2.160;2023-06-01T01:19:42;6.10;;;5.17;;
5363;SDS011;2705;41.410;2.160;2023-06-01T01:22:18;10.60;;;5.63;;
5363;SDS011;2705;41.410;2.160;2023-06-01T01:25:05;8.33;;;5.43;;
5363;SDS011;2705;41.410;2.160;2023-06-01T01:27:39;6.37;;;4.83;;
5363;SDS011;2705;41.410;2.160;2023-06-01T01:30:11;9.93;;;5.63;;
5363;SDS011;2705;41.410;2.160;2023-06-01T01:32:41;8.30;;;5.70;;
5363;SDS011;2705;41.410;2.160;2023-06-01T01:35:11;6.40;;;5.23;;
5363;SDS011;2705;41.410;2.160;2023-06-01T01:37:49;8.67;;;6.17;;
5363;SDS011;2705;41.410;2.160;2023-06-01T01:40:19;7.63;;;5.67;;
5363;SDS011;2705;41.410;2.160;2023-06-01T01:42:49;6.90;;;5.53;;
5363;SDS011;2705;41.410;2.160;2023-06-01T01:45:21;8.63;;;6.10;;
5363;SDS011;2705;41.410;2.160;2023-06-01T01:47:54;8.50;;;6.40;;
5363;SDS011;2705;41.410;2.160;2023-06-01T01:50:26;7.63;;;5.70;;
5363;SDS011;2705;41.410;2.160;2023-06-01T01:52:57;8.57;;;6.00;;
5363;SDS011;2705;41.410;2.160;2023-06-01T01:55:28;8.20;;;5.67;;
5363;SDS011;2705;41.410;2.160;2023-06-01T01:58:00;10.87;;;6.20;;
5363;SDS011;2705;41.410;2.160;2023-06-01T02:00:32;6.40;;;5.70;;
5363;SDS011;2705;41.410;2.160;2023-06-01T02:03:02;10.27;;;6.77;;
5363;SDS011;2705;41.410;2.160;2023-06-01T02:05:33;9.37;;;7.23;;
5363;SDS011;2705;41.410;2.160;2023-06-01T02:08:03;13.10;;;7.93;;
5363;SDS011;2705;41.410;2.160;2023-06-01T02:10:34;9.13;;;6.50;;
5363;SDS011;2705;41.410;2.160;2023-06-01T02:13:04;9.57;;;6.97;;
5363;SDS011;2705;41.410;2.160;2023-06-01T02:15:35;11.80;;;7.50;;
5363;SDS011;2705;41.410;2.160;2023-06-01T02:18:05;11.67;;;7.20;;
5363;SDS011;2705;41.410;2.160;2023-06-01T02:20:36;11.33;;;7.70;;
5363;SDS011;2705;41.410;2.160;2023-06-01T02:23:06;12.07;;;8.00;;
5363;SDS011;2705;41.410;2.160;2023-06-01T02:25:36;12.50;;;8.17;;
5363;SDS011;2705;41.410;2.160;2023-06-01T02:28:07;20.13;;;10.27;;
5363;SDS011;2705;41.410;2.160;2023-06-01T02:30:39;13.80;;;8.90;;
5363;SDS011;2705;41.410;2.160;2023-06-01T02:33:09;12.50;;;8.70;;
5363;SDS011;2705;41.410;2.160;2023-06-01T02:35:39;15.87;;;9.60;;
5363;SDS011;2705;41.410;2.160;2023-06-01T02:38:08;14.57;;;9.30;;
5363;SDS011;2705;41.410;2.160;2023-06-01T02:40:38;16.47;;;10.00;;
5363;SDS011;2705;41.410;2.160;2023-06-01T02:43:08;12.70;;;9.83;;
5363;SDS011;2705;41.410;2.160;2023-06-01T02:45:39;13.43;;;9.10;;
5363;SDS011;2705;41.410;2.160;2023-06-01T02:48:09;12.30;;;8.43;;
5363;SDS011;2705;41.410;2.160;2023-06-01T02:50:39;11.47;;;8.50;;
5363;SDS011;2705;41.410;2.160;2023-06-01T02:53:10;11.80;;;8.93;;
5363;SDS011;2705;41.410;2.160;2023-06-01T02:55:40;13.30;;;8.90;;
5363;SDS011;2705;41.410;2.160;2023-06-01T02:58:31;12.57;;;8.97;;
5363;SDS011;2705;41.410;2.160;2023-06-01T03:01:32;12.30;;;8.70;;
5363;SDS011;2705;41.410;2.160;2023-06-01T03:04:04;12.83;;;9.03;;
5363;SDS011;2705;41.410;2.160;2023-06-01T03:06:34;15.70;;;9.80;;
5363;SDS011;2705;41.410;2.160;2023-06-01T03:09:23;15.80;;;9.03;;
5363;SDS011;2705;41.410;2.160;2023-06-01T03:12:13;14.70;;;9.20;;
5363;SDS011;2705;41.410;2.160;2023-06-01T03:14:43;12.77;;;8.67;;
5363;SDS011;2705;41.410;2.160;2023-06-01T03:17:14;14.70;;;9.43;;
5363;SDS011;2705;41.410;2.160;2023-06-01T03:19:44;14.40;;;10.43;;
5363;SDS011;2705;41.410;2.160;2023-06-01T03:22:19;12.97;;;9.70;;
5363;SDS011;2705;41.410;2.160;2023-06-01T03:24:50;15.50;;;10.40;;
5363;SDS011;2705;41.410;2.160;2023-06-01T03:27:27;17.17;;;10.87;;
5363;SDS011;2705;41.410;2.160;2023-06-01T03:29:58;16.97;;;11.23;;
5363;SDS011;2705;41.410;2.160;2023-06-01T03:32:32;18.60;;;11.50;;
5363;SDS011;2705;41.410;2.160;2023-06-01T03:35:02;16.00;;;11.43;;
5363;SDS011;2705;41.410;2.160;2023-06-01T03:37:33;18.40;;;12.70;;
5363;SDS011;2705;41.410;2.160;2023-06-01T03:40:04;19.23;;;12.07;;
5363;SDS011;2705;41.410;2.160;2023-06-01T03:42:37;19.47;;;12.37;;
5363;SDS011;2705;41.410;2.160;2023-06-01T03:45:07;19.40;;;12.47;;
5363;SDS011;2705;41.410;2.160;2023-06-01T03:47:38;20.93;;;12.37;;
5363;SDS011;2705;41.410;2.160;2023-06-01T03:50:09;17.70;;;13.10;;
5363;SDS011;2705;41.410;2.160;2023-06-01T03:52:38;18.30;;;12.57;;
5363;SDS011;2705;41.410;2.160;2023-06-01T03:55:08;21.00;;;13.93;;
5363;SDS011;2705;41.410;2.160;2023-06-01T03:58:03;20.73;;;12.87;;
5363;SDS011;2705;41.410;2.160;2023-06-01T04:00:35;21.70;;;14.80;;
5363;SDS011;2705;41.410;2.160;2023-06-01T04:03:06;20.83;;;13.80;;
5363;SDS011;2705;41.410;2.160;2023-06-01T04:05:36;17.50;;;12.47;;
5363;SDS011;2705;41.410;2.160;2023-06-01T04:08:06;21.50;;;12.47;;
5363;SDS011;2705;41.410;2.160;2023-06-01T04:10:36;18.50;;;13.63;;
5363;SDS011;2705;41.410;2.160;2023-06-01T04:13:07;19.80;;;13.80;;
5363;SDS011;2705;41.410;2.160;2023-06-01T04:15:37;25.50;;;17.10;;
5363;SDS011;2705;41.410;2.160;2023-06-01T04:18:08;23.73;;;18.20;;
5363;SDS011;2705;41.410;2.160;2023-06-01T04:20:55;26.93;;;18.67;;
5363;SDS011;2705;41.410;2.160;2023-06-01T04:23:25;27.70;;;20.07;;
5363;SDS011;2705;41.410;2.160;2023-06-01T04:25:56;27.07;;;19.33;;
5363;SDS011;2705;41.410;2.160;2023-06-01T04:28:28;27.50;;;19.33;;
5363;SDS011;2705;41.410;2.160;2023-06-01T04:30:59;31.90;;;18.13;;
5363;SDS011;2705;41.410;2.160;2023-06-01T04:33:32;28.40;;;18.30;;
5363;SDS011;2705;41.410;2.160;2023-06-01T04:36:02;28.50;;;18.60;;
5363;SDS011;2705;41.410;2.160;2023-06-01T04:38:33;28.77;;;17.43;;
5363;SDS011;2705;41.410;2.160;2023-06-01T04:41:03;29.17;;;18.97;;
5363;SDS011;2705;41.410;2.160;2023-06-01T04:43:33;26.37;;;18.80;;
5363;SDS011;2705;41.410;2.160;2023-06-01T04:46:04;32.10;;;18.13;;
5363;SDS011;2705;41.410;2.160;2023-06-01T04:48:37;24.73;;;16.80;;
5363;SDS011;2705;41.410;2.160;2023-06-01T04:51:07;26.73;;;18.43;;
5363;SDS011;2705;41.410;2.160;2023-06-01T04:53:36;26.97;;;16.17;;
5363;SDS011;2705;41.410;2.160;2023-06-01T04:56:06;22.23;;;15.77;;
5363;SDS011;2705;41.410;2.160;2023-06-01T04:58:36;23.67;;;14.60;;
5363;SDS011;2705;41.410;2.160;2023-06-01T05:01:05;20.73;;;14.27;;
5363;SDS011;2705;41.410;2.160;2023-06-01T05:03:36;22.00;;;15.13;;
5363;SDS011;2705;41.410;2.160;2023-06-01T05:06:06;17.63;;;12.10;;
5363;SDS011;2705;41.410;2.160;2023-06-01T05:08:38;22.17;;;12.93;;
5363;SDS011;2705;41.410;2.160;2023-06-01T05:11:08;25.37;;;12.97;;
5363;SDS011;2705;41.410;2.160;2023-06-01T05:13:38;18.60;;;12.50;;
5363;SDS011;2705;41.410;2.160;2023-06-01T05:16:09;15.80;;;11.80;;
5363;SDS011;2705;41.410;2.160;2023-06-01T05:18:41;16.73;;;11.80;;
5363;SDS011;2705;41.410;2.160;2023-06-01T05:21:12;17.50;;;12.40;;
5363;SDS011;2705;41.410;2.160;2023-06-01T05:23:42;21.43;;;12.00;;
5363;SDS011;2705;41.410;2.160;2023-06-01T05:26:12;18.40;;;13.10;;
5363;SDS011;2705;41.410;2.160;2023-06-01T05:28:42;16.80;;;11.90;;
5363;SDS011;2705;41.410;2.160;2023-06-01T05:31:12;21.40;;;12.90;;
5363;SDS011;2705;41.410;2.160;2023-06-01T05:33:47;22.63;;;12.63;;
5363;SDS011;2705;41.410;2.160;2023-06-01T05:36:19;15.70;;;11.57;;
5363;SDS011;2705;41.410;2.160;2023-06-01T05:38:48;18.50;;;11.53;;
5363;SDS011;2705;41.410;2.160;2023-06-01T05:41:18;18.47;;;11.77;;
5363;SDS011;2705;41.410;2.160;2023-06-01T05:43:48;21.10;;;11.47;;
5363;SDS011;2705;41.410;2.160;2023-06-01T05:46:18;16.77;;;10.87;;
5363;SDS011;2705;41.410;2.160;2023-06-01T05:48:50;17.10;;;11.90;;
5363;SDS011;2705;41.410;2.160;2023-06-01T05:51:20;15.83;;;10.57;;
5363;SDS011;2705;41.410;2.160;2023-06-01T05:53:51;17.87;;;10.27;;
5363;SDS011;2705;41.410;2.160;2023-06-01T05:56:21;31.87;;;11.33;;
5363;SDS011;2705;41.410;2.160;2023-06-01T05:58:52;14.70;;;10.60;;
5363;SDS011;2705;41.410;2.160;2023-06-01T06:01:21;16.37;;;11.20;;
5363;SDS011;2705;41.410;2.160;2023-06-01T06:03:53;16.93;;;11.73;;
5363;SDS011;2705;41.410;2.160;2023-06-01T06:06:23;19.80;;;11.20;;
5363;SDS011;2705;41.410;2.160;2023-06-01T06:08:53;18.27;;;10.77;;
5363;SDS011;2705;41.410;2.160;2023-06-01T06:11:22;15.50;;;10.33;;
5363;SDS011;2705;41.410;2.160;2023-06-01T06:13:53;15.03;;;10.83;;
5363;SDS011;2705;41.410;2.160;2023-06-01T06:16:23;25.53;;;12.10;;
5363;SDS011;2705;41.410;2.160;2023-06-01T06:18:55;17.80;;;11.40;;
5363;SDS011;2705;41.410;2.160;2023-06-01T06:21:26;19.17;;;12.20;;
5363;SDS011;2705;41.410;2.160;2023-06-01T06:23:56;18.40;;;12.77;;
5363;SDS011;2705;41.410;2.160;2023-06-01T06:26:26;19.07;;;12.10;;
5363;SDS011;2705;41.410;2.160;2023-06-01T06:28:56;15.20;;;10.87;;
5363;SDS011;2705;41.410;2.160;2023-06-01T06:31:26;20.53;;;13.53;;
5363;SDS011;2705;41.410;2.160;2023-06-01T06:33:59;17.40;;;10.47;;
5363;SDS011;2705;41.410;2.160;2023-06-01T06:36:28;21.43;;;11.80;;
5363;SDS011;2705;41.410;2.160;2023-06-01T06:38:59;23.70;;;10.93;;
5363;SDS011;2705;41.410;2.160;2023-06-01T06:41:28;15.20;;;11.20;;
5363;SDS011;2705;41.410;2.160;2023-06-01T06:43:58;16.23;;;11.63;;
5363;SDS011;2705;41.410;2.160;2023-06-01T06:46:28;21.20;;;9.83;;
5363;SDS011;2705;41.410;2.160;2023-06-01T06:48:59;16.90;;;9.97;;
5363;SDS011;2705;41.410;2.160;2023-06-01T06:51:29;31.87;;;16.20;;
5363;SDS011;2705;41.410;2.160;2023-06-01T06:53:58;23.40;;;11.30;;
5363;SDS011;2705;41.410;2.160;2023-06-01T06:56:30;18.87;;;10.17;;
5363;SDS011;2705;41.410;2.160;2023-06-01T06:58:59;22.70;;;12.37;;
5363;SDS011;2705;41.410;2.160;2023-06-01T07:01:34;34.63;;;18.93;;
5363;SDS011;2705;41.410;2.160;2023-06-01T07:04:09;23.03;;;12.60;;
5363;SDS011;2705;41.410;2.160;2023-06-01T07:06:38;22.47;;;13.80;;
5363;SDS011;2705;41.410;2.160;2023-06-01T07:09:09;20.23;;;12.57;;
5363;SDS011;2705;41.410;2.160;2023-06-01T07:11:39;26.90;;;12.40;;
5363;SDS011;2705;41.410;2.160;2023-06-01T07:14:09;22.90;;;14.77;;
5363;SDS011;2705;41.410;2.160;2023-06-01T07:16:39;25.00;;;12.90;;
5363;SDS011;2705;41.410;2.160;2023-06-01T07:19:10;24.53;;;14.00;;
5363;SDS011;2705;41.410;2.160;2023-06-01T07:21:40;25.30;;;13.50;;
5363;SDS011;2705;41.410;2.160;2023-06-01T07:24:10;24.47;;;14.13;;
5363;SDS011;2705;41.410;2.160;2023-06-01T07:26:40;22.43;;;14.40;;
5363;SDS011;2705;41.410;2.160;2023-06-01T07:29:09;22.67;;;13.30;;
5363;SDS011;2705;41.410;2.160;2023-06-01T07:31:41;21.40;;;12.30;;
5363;SDS011;2705;41.410;2.160;2023-06-01T07:34:13;23.77;;;15.17;;
5363;SDS011;2705;41.410;2.160;2023-06-01T07:36:42;23.60;;;12.30;;
5363;SDS011;2705;41.410;2.160;2023-06-01T07:39:12;22.50;;;13.20;;
5363;SDS011;2705;41.410;2.160;2023-06-01T07:41:44;20.30;;;12.33;;
5363;SDS011;2705;41.410;2.160;2023-06-01T07:44:14;30.27;;;16.83;;
5363;SDS011;2705;41.410;2.160;2023-06-01T07:46:45;29.80;;;14.00;;
5363;SDS011;2705;41.410;2.160;2023-06-01T07:49:17;26.80;;;12.77;;
5363;SDS011;2705;41.410;2.160;2023-06-01T07:51:47;17.83;;;10.70;;
5363;SDS011;2705;41.410;2.160;2023-06-01T07:54:19;20.10;;;11.87;;
5363;SDS011;2705;41.410;2.160;2023-06-01T07:56:48;19.43;;;10.57;;
5363;SDS011;2705;41.410;2.160;2023-06-01T07:59:19;24.40;;;13.23;;
5363;SDS011;2705;41.410;2.160;2023-06-01T08:01:49;19.53;;;11.80;;
5363;SDS011;2705;41.410;2.160;2023-06-01T08:04:23;21.33;;;10.07;;
5363;SDS011;2705;41.410;2.160;2023-06-01T08:06:54;16.00;;;9.80;;
5363;SDS011;2705;41.410;2.160;2023-06-01T08:09:24;14.87;;;10.10;;
5363;SDS011;2705;41.410;2.160;2023-06-01T08:11:54;19.00;;;10.60;;
5363;SDS011;2705;41.410;2.160;2023-06-01T08:14:24;16.43;;;10.50;;
5363;SDS011;2705;41.410;2.160;2023-06-01T08:16:55;19.77;;;10.27;;
5363;SDS011;2705;41.410;2.160;2023-06-01T08:19:28;24.77;;;10.50;;
5363;SDS011;2705;41.410;2.160;2023-06-01T08:21:58;25.33;;;11.77;;
5363;SDS011;2705;41.410;2.160;2023-06-01T08:24:34;16.93;;;10.30;;
5363;SDS011;2705;41.410;2.160;2023-06-01T08:27:15;13.30;;;10.00;;
5363;SDS011;2705;41.410;2.160;2023-06-01T08:29:47;18.00;;;9.83;;
5363;SDS011;2705;41.410;2.160;2023-06-01T08:32:20;13.67;;;9.83;;
5363;SDS011;2705;41.410;2.160;2023-06-01T08:34:53;20.23;;;11.40;;
5363;SDS011;2705;41.410;2.160;2023-06-01T08:37:23;19.43;;;11.40;;
5363;SDS011;2705;41.410;2.160;2023-06-01T08:39:53;13.33;;;9.10;;
5363;SDS011;2705;41.410;2.160;2023-06-01T08:42:25;19.40;;;11.30;;
5363;SDS011;2705;41.410;2.160;2023-06-01T08:44:55;15.43;;;10.90;;
5363;SDS011;2705;41.410;2.160;2023-06-01T08:47:27;11.13;;;8.77;;
5363;SDS011;2705;41.410;2.160;2023-06-01T08:50:00;23.73;;;11.63;;
5363;SDS011;2705;41.410;2.160;2023-06-01T08:52:30;13.30;;;9.47;;
5363;SDS011;2705;41.410;2.160;2023-06-01T08:55:01;18.77;;;10.70;;
5363;SDS011;2705;41.410;2.160;2023-06-01T08:57:31;17.47;;;11.00;;
5363;SDS011;2705;41.410;2.160;2023-06-01T09:00:02;18.13;;;11.87;;
5363;SDS011;2705;41.410;2.160;2023-06-01T09:02:32;12.57;;;10.13;;
5363;SDS011;2705;41.410;2.160;2023-06-01T09:05:05;15.93;;;10.07;;
5363;SDS011;2705;41.410;2.160;2023-06-01T09:07:35;15.80;;;10.20;;
5363;SDS011;2705;41.410;2.160;2023-06-01T09:10:05;20.17;;;9.17;;
5363;SDS011;2705;41.410;2.160;2023-06-01T09:12:37;17.33;;;11.10;;
5363;SDS011;2705;41.410;2.160;2023-06-01T09:15:09;19.67;;;11.53;;
5363;SDS011;2705;41.410;2.160;2023-06-01T09:17:39;16.87;;;10.40;;
5363;SDS011;2705;41.410;2.160;2023-06-01T09:20:12;20.53;;;12.53;;
5363;SDS011;2705;41.410;2.160;2023-06-01T09:22:43;20.73;;;10.83;;
5363;SDS011;2705;41.410;2.160;2023-06-01T09:25:13;18.63;;;10.90;;
5363;SDS011;2705;41.410;2.160;2023-06-01T09:27:45;16.40;;;10.23;;
5363;SDS011;2705;41.410;2.160;2023-06-01T09:30:15;18.63;;;12.40;;
5363;SDS011;2705;41.410;2.160;2023-06-01T09:32:46;19.17;;;11.60;;
5363;SDS011;2705;41.410;2.160;2023-06-01T09:38:04;16.10;;;9.00;;
5363;SDS011;2705;41.410;2.160;2023-06-01T09:40:36;16.63;;;10.20;;
5363;SDS011;2705;41.410;2.160;2023-06-01T09:43:19;23.40;;;11.23;;
5363;SDS011;2705;41.410;2.160;2023-06-01T09:46:03;14.33;;;8.97;;
5363;SDS011;2705;41.410;2.160;2023-06-01T09:48:33;25.63;;;12.27;;
5363;SDS011;2705;41.410;2.160;2023-06-01T09:51:04;14.03;;;8.60;;
5363;SDS011;2705;41.410;2.160;2023-06-01T09:53:43;17.30;;;10.17;;
5363;SDS011;2705;41.410;2.160;2023-06-01T09:56:13;19.60;;;10.27;;
5363;SDS011;2705;41.410;2.160;2023-06-01T09:58:43;20.40;;;10.53;;
5363;SDS011;2705;41.410;2.160;2023-06-01T10:01:13;21.07;;;9.83;;
5363;SDS011;2705;41.410;2.160;2023-06-01T10:03:46;14.57;;;8.83;;
5363;SDS011;2705;41.410;2.160;2023-06-01T10:06:20;15.20;;;9.00;;
5363;SDS011;2705;41.410;2.160;2023-06-01T10:08:52;17.97;;;8.70;;
5363;SDS011;2705;41.410;2.160;2023-06-01T10:11:23;24.43;;;8.23;;
5363;SDS011;2705;41.410;2.160;2023-06-01T10:13:54;12.83;;;7.87;;
5363;SDS011;2705;41.410;2.160;2023-06-01T10:16:25;12.43;;;7.47;;
5363;SDS011;2705;41.410;2.160;2023-06-01T10:18:55;11.87;;;7.70;;
5363;SDS011;2705;41.410;2.160;2023-06-01T10:21:25;16.73;;;7.80;;
5363;SDS011;2705;41.410;2.160;2023-06-01T10:23:58;14.13;;;8.00;;
5363;SDS011;2705;41.410;2.160;2023-06-01T10:26:28;17.57;;;7.67;;
5363;SDS011;2705;41.410;2.160;2023-06-01T10:28:58;11.43;;;6.87;;
5363;SDS011;2705;41.410;2.160;2023-06-01T10:31:36;12.40;;;6.70;;
5363;SDS011;2705;41.410;2.160;2023-06-01T10:34:06;12.50;;;6.60;;
5363;SDS011;2705;41.410;2.160;2023-06-01T10:39:34;14.03;;;7.30;;
5363;SDS011;2705;41.410;2.160;2023-06-01T10:44:55;16.53;;;6.90;;
5363;SDS011;2705;41.410;2.160;2023-06-01T10:50:17;12.37;;;7.17;;
5363;SDS011;2705;41.410;2.160;2023-06-01T10:52:47;16.33;;;8.37;;
5363;SDS011;2705;41.410;2.160;2023-06-01T10:55:21;16.50;;;8.13;;
5363;SDS011;2705;41.410;2.160;2023-06-01T11:00:38;13.37;;;7.10;;
5363;SDS011;2705;41.410;2.160;2023-06-01T11:03:10;11.90;;;7.40;;
5363;SDS011;2705;41.410;2.160;2023-06-01T11:05:42;9.03;;;6.80;;
5363;SDS011;2705;41.410;2.160;2023-06-01T11:11:04;9.13;;;6.37;;
5363;SDS011;2705;41.410;2.160;2023-06-01T11:13:34;15.13;;;7.30;;
5363;SDS011;2705;41.410;2.160;2023-06-01T11:18:56;12.03;;;6.67;;
5363;SDS011;2705;41.410;2.160;2023-06-01T11:21:31;12.00;;;7.20;;
5363;SDS011;2705;41.410;2.160;2023-06-01T11:24:06;14.13;;;6.23;;
5363;SDS011;2705;41.410;2.160;2023-06-01T11:26:39;13.30;;;6.90;;
5363;SDS011;2705;41.410;2.160;2023-06-01T11:29:10;17.03;;;7.87;;
5363;SDS011;2705;41.410;2.160;2023-06-01T11:31:41;13.93;;;8.30;;
5363;SDS011;2705;41.410;2.160;2023-06-01T11:34:12;9.27;;;7.10;;
5363;SDS011;2705;41.410;2.160;2023-06-01T11:36:43;13.20;;;7.03;;
5363;SDS011;2705;41.410;2.160;2023-06-01T11:39:22;13.33;;;7.27;;
5363;SDS011;2705;41.410;2.160;2023-06-01T11:42:03;9.67;;;6.93;;
5363;SDS011;2705;41.410;2.160;2023-06-01T11:44:37;13.07;;;7.30;;
5363;SDS011;2705;41.410;2.160;2023-06-01T11:47:11;10.63;;;6.90;;
5363;SDS011;2705;41.410;2.160;2023-06-01T11:49:43;13.20;;;7.10;;
5363;SDS011;2705;41.410;2.160;2023-06-01T11:52:15;12.10;;;6.87;;
5363;SDS011;2705;41.410;2.160;2023-06-01T11:54:45;9.80;;;6.73;;
5363;SDS011;2705;41.410;2.160;2023-06-01T11:57:16;13.27;;;7.17;;
5363;SDS011;2705;41.410;2.160;2023-06-01T11:59:47;9.13;;;6.43;;
5363;SDS011;2705;41.410;2.160;2023-06-01T12:02:18;17.20;;;9.00;;
5363;SDS011;2705;41.410;2.160;2023-06-01T12:04:55;13.33;;;8.47;;
5363;SDS011;2705;41.410;2.160;2023-06-01T12:07:26;12.93;;;6.23;;
5363;SDS011;2705;41.410;2.160;2023-06-01T12:09:57;12.90;;;7.10;;
5363;SDS011;2705;41.410;2.160;2023-06-01T12:12:30;15.43;;;6.70;;
5363;SDS011;2705;41.410;2.160;2023-06-01T12:15:00;15.40;;;6.60;;
5363;SDS011;2705;41.410;2.160;2023-06-01T12:17:45;17.23;;;7.17;;
5363;SDS011;2705;41.410;2.160;2023-06-01T12:20:26;14.97;;;7.50;;
5363;SDS011;2705;41.410;2.160;2023-06-01T12:22:57;8.50;;;6.97;;
5363;SDS011;2705;41.410;2.160;2023-06-01T12:25:30;9.17;;;6.53;;
5363;SDS011;2705;41.410;2.160;2023-06-01T12:28:05;9.70;;;7.50;;
5363;SDS011;2705;41.410;2.160;2023-06-01T12:30:37;11.30;;;6.80;;
5363;SDS011;2705;41.410;2.160;2023-06-01T12:33:07;10.40;;;7.17;;
5363;SDS011;2705;41.410;2.160;2023-06-01T12:35:47;10.73;;;7.57;;
5363;SDS011;2705;41.410;2.160;2023-06-01T12:38:18;13.00;;;7.20;;
5363;SDS011;2705;41.410;2.160;2023-06-01T12:41:05;8.73;;;6.80;;
5363;SDS011;2705;41.410;2.160;2023-06-01T12:43:38;15.30;;;7.13;;
5363;SDS011;2705;41.410;2.160;2023-06-01T12:46:16;11.77;;;7.30;;
5363;SDS011;2705;41.410;2.160;2023-06-01T12:48:46;12.07;;;6.80;;
5363;SDS011;2705;41.410;2.160;2023-06-01T12:51:16;9.83;;;6.50;;
5363;SDS011;2705;41.410;2.160;2023-06-01T12:53:47;10.30;;;6.60;;
5363;SDS011;2705;41.410;2.160;2023-06-01T12:56:19;10.23;;;6.17;;
5363;SDS011;2705;41.410;2.160;2023-06-01T12:58:50;11.70;;;7.37;;
5363;SDS011;2705;41.410;2.160;2023-06-01T13:01:22;10.17;;;6.07;;
5363;SDS011;2705;41.410;2.160;2023-06-01T13:03:52;10.33;;;6.33;;
5363;SDS011;2705;41.410;2.160;2023-06-01T13:06:24;10.83;;;6.20;;
5363;SDS011;2705;41.410;2.160;2023-06-01T13:08:55;6.97;;;5.90;;
5363;SDS011;2705;41.410;2.160;2023-06-01T13:11:25;14.10;;;6.60;;
5363;SDS011;2705;41.410;2.160;2023-06-01T13:13:57;11.33;;;6.60;;
5363;SDS011;2705;41.410;2.160;2023-06-01T13:16:27;12.43;;;6.60;;
5363;SDS011;2705;41.410;2.160;2023-06-01T13:18:57;9.47;;;7.00;;
5363;SDS011;2705;41.410;2.160;2023-06-01T13:21:27;9.20;;;6.80;;
5363;SDS011;2705;41.410;2.160;2023-06-01T13:23:58;10.80;;;6.47;;
5363;SDS011;2705;41.410;2.160;2023-06-01T13:26:29;15.10;;;7.33;;
5363;SDS011;2705;41.410;2.160;2023-06-01T13:29:01;12.83;;;7.83;;
5363;SDS011;2705;41.410;2.160;2023-06-01T13:31:33;12.10;;;9.13;;
5363;SDS011;2705;41.410;2.160;2023-06-01T13:34:04;8.33;;;6.43;;
5363;SDS011;2705;41.410;2.160;2023-06-01T13:36:34;8.50;;;6.40;;
5363;SDS011;2705;41.410;2.160;2023-06-01T13:39:04;11.17;;;7.00;;
5363;SDS011;2705;41.410;2.160;2023-06-01T13:41:34;9.40;;;5.90;;
5363;SDS011;2705;41.410;2.160;2023-06-01T13:44:05;15.17;;;7.50;;
5363;SDS011;2705;41.410;2.160;2023-06-01T13:46:35;13.10;;;9.93;;
5363;SDS011;2705;41.410;2.160;2023-06-01T13:49:05;12.27;;;6.77;;
5363;SDS011;2705;41.410;2.160;2023-06-01T13:51:35;12.70;;;7.00;;
5363;SDS011;2705;41.410;2.160;2023-06-01T13:54:05;10.60;;;6.97;;
5363;SDS011;2705;41.410;2.160;2023-06-01T13:56:35;9.40;;;6.20;;
5363;SDS011;2705;41.410;2.160;2023-06-01T13:59:06;11.27;;;7.53;;
5363;SDS011;2705;41.410;2.160;2023-06-01T14:01:36;18.63;;;8.07;;
5363;SDS011;2705;41.410;2.160;2023-06-01T14:04:06;9.03;;;7.37;;
5363;SDS011;2705;41.410;2.160;2023-06-01T14:06:35;11.30;;;6.80;;
5363;SDS011;2705;41.410;2.160;2023-06-01T14:09:05;10.93;;;6.60;;
5363;SDS011;2705;41.410;2.160;2023-06-01T14:11:35;12.43;;;8.00;;
5363;SDS011;2705;41.410;2.160;2023-06-01T14:14:04;11.23;;;6.77;;
5363;SDS011;2705;41.410;2.160;2023-06-01T14:16:36;8.70;;;6.90;;
5363;SDS011;2705;41.410;2.160;2023-06-01T14:19:06;11.70;;;6.83;;
5363;SDS011;2705;41.410;2.160;2023-06-01T14:21:35;13.27;;;7.37;;
5363;SDS011;2705;41.410;2.160;2023-06-01T14:24:05;8.60;;;6.70;;
5363;SDS011;2705;41.410;2.160;2023-06-01T14:26:35;18.33;;;7.40;;
5363;SDS011;2705;41.410;2.160;2023-06-01T14:29:05;8.37;;;6.40;;
5363;SDS011;2705;41.410;2.160;2023-06-01T14:31:37;9.67;;;7.20;;
5363;SDS011;2705;41.410;2.160;2023-06-01T14:34:07;10.93;;;7.03;;
5363;SDS011;2705;41.410;2.160;2023-06-01T14:36:36;10.27;;;7.43;;
5363;SDS011;2705;41.410;2.160;2023-06-01T14:39:13;15.63;;;7.47;;
5363;SDS011;2705;41.410;2.160;2023-06-01T14:41:43;11.50;;;6.80;;
5363;SDS011;2705;41.410;2.160;2023-06-01T14:44:12;12.27;;;8.93;;
5363;SDS011;2705;41.410;2.160;2023-06-01T14:46:44;13.43;;;7.00;;
5363;SDS011;2705;41.410;2.160;2023-06-01T14:49:14;12.23;;;7.63;;
5363;SDS011;2705;41.410;2.160;2023-06-01T14:51:46;8.97;;;6.10;;
5363;SDS011;2705;41.410;2.160;2023-06-01T14:54:17;10.47;;;6.47;;
5363;SDS011;2705;41.410;2.160;2023-06-01T14:57:03;14.33;;;7.37;;
5363;SDS011;2705;41.410;2.160;2023-06-01T14:59:34;20.97;;;15.33;;
5363;SDS011;2705;41.410;2.160;2023-06-01T15:02:13;9.30;;;7.03;;
5363;SDS011;2705;41.410;2.160;2023-06-01T15:04:43;12.37;;;6.90;;
5363;SDS011;2705;41.410;2.160;2023-06-01T15:07:15;16.17;;;9.30;;
5363;SDS011;2705;41.410;2.160;2023-06-01T15:09:45;13.07;;;8.53;;
5363;SDS011;2705;41.410;2.160;2023-06-01T15:12:14;14.33;;;7.60;;
5363;SDS011;2705;41.410;2.160;2023-06-01T15:14:45;16.63;;;7.67;;
5363;SDS011;2705;41.410;2.160;2023-06-01T15:17:17;16.27;;;9.63;;
5363;SDS011;2705;41.410;2.160;2023-06-01T15:19:47;15.83;;;8.30;;
5363;SDS011;2705;41.410;2.160;2023-06-01T15:22:16;14.47;;;8.30;;
5363;SDS011;2705;41.410;2.160;2023-06-01T15:24:46;11.30;;;8.60;;
5363;SDS011;2705;41.410;2.160;2023-06-01T15:27:15;14.17;;;10.53;;
5363;SDS011;2705;41.410;2.160;2023-06-01T15:29:47;13.13;;;8.60;;
5363;SDS011;2705;41.410;2.160;2023-06-01T15:32:17;12.00;;;7.57;;
5363;SDS011;2705;41.410;2.160;2023-06-01T15:34:47;8.70;;;7.10;;
5363;SDS011;2705;41.410;2.160;2023-06-01T15:37:17;10.83;;;7.80;;
5363;SDS011;2705;41.410;2.160;2023-06-01T15:39:50;11.03;;;8.57;;
5363;SDS011;2705;41.410;2.160;2023-06-01T15:42:20;10.80;;;8.50;;
5363;SDS011;2705;41.410;2.160;2023-06-01T15:44:50;11.67;;;7.63;;